Airfield :







YOU CAN JOIN US ON...

 
LOGIN :

Register | Disclaimer

   EN    FR    IT 

 









Legend :    VFR   Marginal VFR   IFR   Intensive IFR   Very Intensive IFR
Visi :
Ceiling :
>= 8 km
>= 3000ft
5 to 8 km
1000 to 3000 ft
1500m to 5 km
500 to 1000 ft
800 to 1500m
200 to 500 ft
< 800m
< 200 ft
Symbols :   Thunderstorms  Fog  Heavy snow  Heavy precipitations  Wind > 20 kt






- Airport Elevation : 496 ft
- IATA code : YQX


CYQX - Gander

CURRENT METAR :
  • 060500Z 21007KT 20SM FEW040 OVC064 M01/M05 A2982 RMK SC1SC7 SLP107

EXPIRED METARs :
  • 060400Z 22007KT 20SM BKN045 OVC064 M01/M05 A2984 RMK SC7SC1 SLP114
  • 060300Z 19007KT 20SM FEW045 BKN058 M02/M05 A2985 RMK SC2SC4 SLP119

TAF TAF CYQX
Valid from the 06 at 00:00 until the 07 at 00:00 UTC


052338Z 0600/0624 VRB03KT P6SM OVC040
TEMPO 0600/0606 5SM -SHSN OVC020
FM060600 22010KT P6SM BKN020
TEMPO 0606/0612 BKN030
FM061200 22015G25KT P6SM BKN040
BECMG 0613/0615 20020G30KT
FM061800 21020G30KT 6SM -RASN OVC025
FM062100 20020G35KT 5SM -SN OVC020
BECMG 0622/0624 20018G28KT RMK NXT FCST BY 060600Z



MET'MAP, your aeronautical weather chart ! - Copyright ORBIFLY December 2007 - Disclaimer

ORBIFLY MET'MAP TEAM :

Programming & Development : Alexandra Zaïnal
Concept & original design : Baudouin d'Aumeries
Assistance for programming : Marc-Olivier Méhu
Technical & hardware support : Manuel Goepfert

Contact : metmap@orbifly.com




SOURCES & CREDITS :

   NOAA